JBU251 KHPN-KRSW
Flight info
| Callsign | JBU251 |
|---|---|
| Flight time | N/A |
| Altitude | 36000 |
| Route | BIGGY Q75 SLOJO Q103 CYNTA SHFTY6 |
| Aircraft | A320/M-SDE3FGHIRWY/LB1 |
Departure
| Time | 2026-05-09 10:57 |
|---|---|
| Airport | Westchester County Airport (KHPN) |
Arrival
| Time | N/A |
|---|---|
| Airport | Southwest Florida International Airport (KRSW) |
| Time | Latitude | Longitude | Altitude | Speed | Heading |
|---|---|---|---|---|---|
| 2026-05-09 10:08 | 41.06839 | -73.70494 | 409 ft | 0 kts | 59° |
| 2026-05-09 10:47 | 41.06830 | -73.70513 | 409 ft | 4 kts | 48° |
| 2026-05-09 10:47 | 41.06809 | -73.70532 | 406 ft | 4 kts | 9° |
| 2026-05-09 10:47 | 41.06790 | -73.70530 | 405 ft | 1 kts | 330° |
| 2026-05-09 10:48 | 41.06787 | -73.70527 | 407 ft | 0 kts | 330° |
| 2026-05-09 10:52 | 41.06789 | -73.70528 | 405 ft | 1 kts | 330° |
| 2026-05-09 10:53 | 41.06802 | -73.70539 | 409 ft | 3 kts | 330° |
| 2026-05-09 10:53 | 41.06838 | -73.70567 | 409 ft | 8 kts | 330° |
| 2026-05-09 10:53 | 41.06892 | -73.70608 | 410 ft | 11 kts | 330° |
| 2026-05-09 10:53 | 41.06963 | -73.70662 | 413 ft | 12 kts | 330° |
| 2026-05-09 10:54 | 41.07035 | -73.70717 | 415 ft | 13 kts | 330° |
| 2026-05-09 10:54 | 41.07118 | -73.70780 | 407 ft | 16 kts | 333° |
| 2026-05-09 10:54 | 41.07228 | -73.70844 | 414 ft | 18 kts | 337° |
| 2026-05-09 10:54 | 41.07334 | -73.70912 | 428 ft | 16 kts | 330° |
| 2026-05-09 10:55 | 41.07426 | -73.70983 | 428 ft | 14 kts | 329° |
| 2026-05-09 10:55 | 41.07499 | -73.71041 | 438 ft | 11 kts | 329° |
| 2026-05-09 10:55 | 41.07542 | -73.71113 | 435 ft | 11 kts | 281° |
| 2026-05-09 10:55 | 41.07552 | -73.71213 | 429 ft | 11 kts | 276° |
| 2026-05-09 10:56 | 41.07553 | -73.71297 | 434 ft | 7 kts | 263° |
| 2026-05-09 10:56 | 41.07530 | -73.71312 | 436 ft | 6 kts | 167° |
| 2026-05-09 10:56 | 41.07465 | -73.71259 | 440 ft | 29 kts | 149° |
| 2026-05-09 10:56 | 41.07024 | -73.70921 | 413 ft | 114 kts | 150° |
| 2026-05-09 10:57 | 41.06150 | -73.70262 | 537 ft | 162 kts | 149° |
| 2026-05-09 10:57 | 41.05111 | -73.69708 | 1315 ft | 164 kts | 178° |
| 2026-05-09 10:57 | 41.04081 | -73.70171 | 2069 ft | 163 kts | 222° |
| 2026-05-09 10:57 | 41.03558 | -73.71589 | 2309 ft | 186 kts | 268° |
| 2026-05-09 10:58 | 41.03968 | -73.73223 | 2814 ft | 195 kts | 308° |
| 2026-05-09 10:58 | 41.05127 | -73.74189 | 3400 ft | 204 kts | 341° |
| 2026-05-09 10:58 | 41.06503 | -73.74599 | 3980 ft | 207 kts | 342° |
| 2026-05-09 10:58 | 41.07827 | -73.75384 | 4292 ft | 216 kts | 313° |
| 2026-05-09 10:59 | 41.08642 | -73.77085 | 4518 ft | 228 kts | 279° |
| 2026-05-09 10:59 | 41.08839 | -73.79251 | 4870 ft | 247 kts | 269° |
| 2026-05-09 10:59 | 41.08883 | -73.81566 | 5552 ft | 253 kts | 264° |
| 2026-05-09 10:59 | 41.08490 | -73.83817 | 6389 ft | 252 kts | 242° |
| 2026-05-09 11:00 | 41.07512 | -73.85736 | 7257 ft | 252 kts | 233° |
| 2026-05-09 11:00 | 41.06454 | -73.87581 | 8214 ft | 252 kts | 233° |
| 2026-05-09 11:00 | 41.05386 | -73.89425 | 9109 ft | 253 kts | 234° |
| 2026-05-09 11:00 | 41.04314 | -73.91271 | 9982 ft | 254 kts | 234° |
| 2026-05-09 11:01 | 41.03214 | -73.93164 | 10497 ft | 268 kts | 234° |
| 2026-05-09 11:01 | 41.02032 | -73.95204 | 10699 ft | 291 kts | 234° |
| 2026-05-09 11:01 | 41.00763 | -73.97400 | 11010 ft | 307 kts | 234° |
| 2026-05-09 11:01 | 40.99451 | -73.99665 | 11587 ft | 313 kts | 235° |
| 2026-05-09 11:02 | 40.98116 | -74.01958 | 12212 ft | 316 kts | 234° |
| 2026-05-09 11:02 | 40.96767 | -74.04273 | 12837 ft | 320 kts | 235° |
| 2026-05-09 11:02 | 40.95398 | -74.06623 | 13490 ft | 324 kts | 235° |
| 2026-05-09 11:02 | 40.94020 | -74.08995 | 14085 ft | 327 kts | 235° |
| 2026-05-09 11:03 | 40.92625 | -74.11393 | 14676 ft | 330 kts | 236° |
| 2026-05-09 11:03 | 40.91225 | -74.13797 | 15295 ft | 331 kts | 236° |
| 2026-05-09 11:03 | 40.89815 | -74.16215 | 15904 ft | 332 kts | 236° |
| 2026-05-09 11:03 | 40.88403 | -74.18634 | 16483 ft | 333 kts | 236° |
| 2026-05-09 11:04 | 40.87000 | -74.21040 | 17064 ft | 335 kts | 236° |
| 2026-05-09 11:04 | 40.85571 | -74.23489 | 17694 ft | 337 kts | 236° |
| 2026-05-09 11:04 | 40.84134 | -74.25949 | 18302 ft | 339 kts | 236° |
| 2026-05-09 11:04 | 40.82691 | -74.28416 | 18875 ft | 340 kts | 236° |
| 2026-05-09 11:05 | 40.81242 | -74.30901 | 19440 ft | 342 kts | 236° |
| 2026-05-09 11:05 | 40.79780 | -74.33400 | 20007 ft | 344 kts | 236° |
| 2026-05-09 11:05 | 40.78348 | -74.35844 | 20569 ft | 346 kts | 236° |
| 2026-05-09 11:05 | 40.76873 | -74.38362 | 21108 ft | 348 kts | 237° |
| 2026-05-09 11:06 | 40.75386 | -74.40895 | 21626 ft | 349 kts | 237° |
| 2026-05-09 11:06 | 40.73893 | -74.43435 | 22121 ft | 351 kts | 237° |
| 2026-05-09 11:06 | 40.72396 | -74.45981 | 22599 ft | 353 kts | 237° |
| 2026-05-09 11:06 | 40.70882 | -74.48551 | 23025 ft | 356 kts | 237° |
| 2026-05-09 11:07 | 40.69357 | -74.51134 | 23444 ft | 359 kts | 237° |
| 2026-05-09 11:07 | 40.67821 | -74.53740 | 23831 ft | 361 kts | 237° |
| 2026-05-09 11:07 | 40.66276 | -74.56365 | 24197 ft | 363 kts | 237° |
| 2026-05-09 11:07 | 40.64722 | -74.58998 | 24565 ft | 365 kts | 237° |
| 2026-05-09 11:08 | 40.63161 | -74.61641 | 24918 ft | 367 kts | 237° |
| 2026-05-09 11:08 | 40.61583 | -74.64306 | 25271 ft | 369 kts | 237° |
| 2026-05-09 11:08 | 40.59995 | -74.66984 | 25622 ft | 371 kts | 237° |
| 2026-05-09 11:08 | 40.58404 | -74.69666 | 25976 ft | 373 kts | 237° |
| 2026-05-09 11:09 | 40.56804 | -74.72367 | 26314 ft | 375 kts | 237° |
| 2026-05-09 11:09 | 40.55190 | -74.75086 | 26655 ft | 377 kts | 237° |
| 2026-05-09 11:09 | 40.53588 | -74.77778 | 26946 ft | 380 kts | 237° |
| 2026-05-09 11:09 | 40.51951 | -74.80525 | 27249 ft | 383 kts | 237° |
| 2026-05-09 11:10 | 40.50305 | -74.83292 | 27569 ft | 385 kts | 237° |
| 2026-05-09 11:10 | 40.48650 | -74.86071 | 27900 ft | 387 kts | 237° |
| 2026-05-09 11:10 | 40.46985 | -74.88866 | 28227 ft | 389 kts | 237° |
| 2026-05-09 11:10 | 40.45319 | -74.91664 | 28625 ft | 388 kts | 237° |
| 2026-05-09 11:11 | 40.43657 | -74.94445 | 29087 ft | 387 kts | 237° |
| 2026-05-09 11:11 | 40.41988 | -74.97224 | 29555 ft | 386 kts | 237° |
| 2026-05-09 11:11 | 40.40270 | -74.99883 | 30018 ft | 387 kts | 234° |
| 2026-05-09 11:11 | 40.38451 | -75.02487 | 30419 ft | 387 kts | 233° |
| 2026-05-09 11:12 | 40.36592 | -75.05034 | 30792 ft | 386 kts | 232° |
| 2026-05-09 11:12 | 40.34720 | -75.07566 | 31203 ft | 385 kts | 232° |
| 2026-05-09 11:12 | 40.32865 | -75.10086 | 31632 ft | 383 kts | 232° |
| 2026-05-09 11:12 | 40.31034 | -75.12598 | 32077 ft | 381 kts | 233° |
| 2026-05-09 11:13 | 40.29220 | -75.15118 | 32508 ft | 378 kts | 233° |
| 2026-05-09 11:13 | 40.27428 | -75.17629 | 32935 ft | 376 kts | 233° |
| 2026-05-09 11:13 | 40.25648 | -75.20127 | 33364 ft | 375 kts | 233° |
| 2026-05-09 11:13 | 40.23873 | -75.22615 | 33790 ft | 373 kts | 233° |
| 2026-05-09 11:14 | 40.22107 | -75.25086 | 34167 ft | 371 kts | 233° |
| 2026-05-09 11:14 | 40.20346 | -75.27545 | 34493 ft | 370 kts | 233° |
| 2026-05-09 11:14 | 40.18610 | -75.29960 | 34783 ft | 369 kts | 233° |
| 2026-05-09 11:14 | 40.16854 | -75.32395 | 35099 ft | 367 kts | 233° |
| 2026-05-09 11:15 | 40.15110 | -75.34816 | 35417 ft | 365 kts | 233° |
| 2026-05-09 11:15 | 40.13371 | -75.37233 | 35719 ft | 364 kts | 233° |
| 2026-05-09 11:15 | 40.11638 | -75.39642 | 35923 ft | 364 kts | 234° |
| 2026-05-09 11:16 | 40.08138 | -75.44520 | 35976 ft | 373 kts | 233° |
| 2026-05-09 11:16 | 40.04553 | -75.49495 | 35971 ft | 378 kts | 233° |
| 2026-05-09 11:17 | 40.00938 | -75.54488 | 35970 ft | 378 kts | 233° |
| 2026-05-09 11:17 | 39.97335 | -75.59454 | 35967 ft | 375 kts | 233° |
| 2026-05-09 11:18 | 39.93750 | -75.64381 | 35973 ft | 374 kts | 233° |
| 2026-05-09 11:18 | 39.90274 | -75.69312 | 35974 ft | 371 kts | 236° |
| 2026-05-09 11:19 | 39.87049 | -75.74477 | 35961 ft | 370 kts | 238° |
| 2026-05-09 11:19 | 39.83989 | -75.79523 | 35982 ft | 370 kts | 237° |
| 2026-05-09 11:20 | 39.80784 | -75.84714 | 35971 ft | 371 kts | 237° |
| 2026-05-09 11:20 | 39.77528 | -75.89914 | 35970 ft | 372 kts | 237° |
| 2026-05-09 11:21 | 39.74259 | -75.95107 | 35968 ft | 372 kts | 237° |
| 2026-05-09 11:21 | 39.70977 | -76.00316 | 35968 ft | 373 kts | 237° |
| 2026-05-09 11:22 | 39.68271 | -76.04609 | 35970 ft | 373 kts | 237° |
| 2026-05-09 11:22 | 39.64989 | -76.09795 | 35964 ft | 373 kts | 237° |
| 2026-05-09 11:23 | 39.61700 | -76.14988 | 35974 ft | 372 kts | 237° |
| 2026-05-09 11:23 | 39.58409 | -76.20160 | 35978 ft | 372 kts | 236° |
| 2026-05-09 11:24 | 39.55096 | -76.25250 | 35975 ft | 372 kts | 236° |
| 2026-05-09 11:24 | 39.51746 | -76.30370 | 35974 ft | 372 kts | 236° |
| 2026-05-09 11:25 | 39.48403 | -76.35484 | 35976 ft | 372 kts | 236° |
| 2026-05-09 11:25 | 39.44985 | -76.40582 | 35919 ft | 374 kts | 233° |
| 2026-05-09 11:26 | 39.41360 | -76.45352 | 35949 ft | 374 kts | 232° |
| 2026-05-09 11:26 | 39.37650 | -76.50060 | 35971 ft | 373 kts | 232° |
| 2026-05-09 11:27 | 39.33975 | -76.54794 | 35995 ft | 373 kts | 232° |
| 2026-05-09 11:27 | 39.30329 | -76.59550 | 35965 ft | 372 kts | 232° |
| 2026-05-09 11:28 | 39.26685 | -76.64311 | 35964 ft | 372 kts | 232° |
| 2026-05-09 11:28 | 39.23043 | -76.69053 | 35940 ft | 372 kts | 232° |
| 2026-05-09 11:29 | 39.19402 | -76.73783 | 35951 ft | 371 kts | 232° |
| 2026-05-09 11:29 | 39.15761 | -76.78500 | 35955 ft | 371 kts | 232° |
| 2026-05-09 11:30 | 39.12143 | -76.83176 | 35966 ft | 371 kts | 232° |
| 2026-05-09 11:30 | 39.08506 | -76.87878 | 35992 ft | 370 kts | 232° |
| 2026-05-09 11:31 | 39.04868 | -76.92574 | 35949 ft | 371 kts | 232° |
| 2026-05-09 11:31 | 39.01223 | -76.97264 | 35964 ft | 370 kts | 232° |
| 2026-05-09 11:32 | 38.97634 | -77.01886 | 35970 ft | 370 kts | 232° |
| 2026-05-09 11:32 | 38.94029 | -77.06533 | 35954 ft | 370 kts | 232° |
| 2026-05-09 11:33 | 38.90406 | -77.11184 | 35956 ft | 370 kts | 232° |
| 2026-05-09 11:33 | 38.88473 | -77.13659 | 35962 ft | 370 kts | 232° |
| 2026-05-09 11:34 | 38.85593 | -77.17351 | 35927 ft | 369 kts | 232° |
| 2026-05-09 11:34 | 38.81966 | -77.21997 | 35940 ft | 368 kts | 232° |
| 2026-05-09 11:35 | 38.80653 | -77.23678 | 35970 ft | 368 kts | 232° |
| 2026-05-09 11:35 | 38.77026 | -77.28312 | 35965 ft | 368 kts | 232° |
| 2026-05-09 11:36 | 38.76722 | -77.28698 | 35964 ft | 368 kts | 232° |
| 2026-05-09 11:36 | 38.74279 | -77.31811 | 35962 ft | 368 kts | 232° |
| 2026-05-09 11:37 | 38.70586 | -77.36368 | 35978 ft | 370 kts | 230° |
| 2026-05-09 11:37 | 38.69302 | -77.37861 | 35977 ft | 370 kts | 230° |
| 2026-05-09 11:38 | 38.68281 | -77.39031 | 35981 ft | 371 kts | 229° |
| 2026-05-09 11:38 | 38.64420 | -77.43404 | 35964 ft | 370 kts | 230° |
| 2026-05-09 11:39 | 38.60587 | -77.47781 | 35994 ft | 369 kts | 230° |
| 2026-05-09 11:40 | 38.54905 | -77.54326 | 35983 ft | 368 kts | 230° |
| 2026-05-09 11:40 | 38.51103 | -77.58694 | 35975 ft | 367 kts | 230° |
| 2026-05-09 11:41 | 38.50903 | -77.58923 | 35986 ft | 367 kts | 230° |
| 2026-05-09 11:41 | 38.48402 | -77.61796 | 36000 ft | 368 kts | 230° |
| 2026-05-09 11:42 | 38.44598 | -77.66162 | 35957 ft | 368 kts | 230° |
| 2026-05-09 11:42 | 38.40793 | -77.70522 | 35977 ft | 367 kts | 230° |
| 2026-05-09 11:43 | 38.36986 | -77.74866 | 35979 ft | 367 kts | 230° |
| 2026-05-09 11:43 | 38.33976 | -77.78308 | 35971 ft | 370 kts | 230° |
| 2026-05-09 11:45 | 38.33131 | -77.79276 | 35966 ft | 373 kts | 230° |
| 2026-05-09 11:45 | 38.29225 | -77.83743 | 35970 ft | 381 kts | 230° |
| 2026-05-09 11:46 | 38.25254 | -77.88259 | 35930 ft | 382 kts | 230° |
| 2026-05-09 11:46 | 38.21288 | -77.92743 | 35971 ft | 380 kts | 230° |
| 2026-05-09 11:47 | 38.17343 | -77.97213 | 35977 ft | 381 kts | 230° |
| 2026-05-09 11:47 | 38.13433 | -78.01650 | 35972 ft | 381 kts | 230° |
| 2026-05-09 11:48 | 38.09470 | -78.06141 | 35974 ft | 382 kts | 230° |
| 2026-05-09 11:48 | 38.08732 | -78.06975 | 35972 ft | 382 kts | 230° |
| 2026-05-09 11:49 | 38.04755 | -78.11463 | 35935 ft | 383 kts | 230° |
| 2026-05-09 11:49 | 38.00763 | -78.15927 | 35960 ft | 384 kts | 228° |
| 2026-05-09 11:50 | 37.96567 | -78.20086 | 35974 ft | 387 kts | 225° |
| 2026-05-09 11:50 | 37.92211 | -78.24118 | 35981 ft | 387 kts | 225° |
| 2026-05-09 11:51 | 37.87877 | -78.28160 | 35975 ft | 387 kts | 225° |
| 2026-05-09 11:51 | 37.83574 | -78.32250 | 35979 ft | 386 kts | 226° |
| 2026-05-09 11:52 | 37.79288 | -78.36344 | 35985 ft | 386 kts | 226° |
| 2026-05-09 11:52 | 37.74999 | -78.40435 | 35982 ft | 386 kts | 226° |
| 2026-05-09 11:53 | 37.70699 | -78.44520 | 35985 ft | 387 kts | 226° |
| 2026-05-09 11:53 | 37.66417 | -78.48567 | 35991 ft | 387 kts | 225° |
| 2026-05-09 11:54 | 37.62109 | -78.52637 | 35951 ft | 387 kts | 226° |
| 2026-05-09 11:54 | 37.57809 | -78.56696 | 35981 ft | 386 kts | 226° |
| 2026-05-09 11:55 | 37.53513 | -78.60740 | 36003 ft | 385 kts | 226° |
| 2026-05-09 11:56 | 37.40646 | -78.72834 | 35962 ft | 385 kts | 226° |
| 2026-05-09 11:57 | 37.36355 | -78.76867 | 35976 ft | 385 kts | 226° |
| 2026-05-09 11:57 | 37.32060 | -78.80887 | 35989 ft | 385 kts | 226° |
| 2026-05-09 11:58 | 37.27789 | -78.84876 | 35987 ft | 385 kts | 226° |
| 2026-05-09 11:58 | 37.23497 | -78.88881 | 35987 ft | 385 kts | 226° |
| 2026-05-09 11:59 | 37.19204 | -78.92884 | 35927 ft | 384 kts | 226° |
| 2026-05-09 11:59 | 37.14916 | -78.96868 | 35969 ft | 383 kts | 226° |
| 2026-05-09 12:00 | 37.10634 | -79.00843 | 35980 ft | 382 kts | 226° |
| 2026-05-09 12:00 | 37.06365 | -79.04814 | 35987 ft | 382 kts | 226° |
| 2026-05-09 12:01 | 37.02092 | -79.08773 | 36008 ft | 382 kts | 226° |
| 2026-05-09 12:01 | 36.97812 | -79.12729 | 35997 ft | 383 kts | 226° |
| 2026-05-09 12:02 | 36.93560 | -79.16648 | 35976 ft | 382 kts | 226° |
| 2026-05-09 12:02 | 36.89265 | -79.20615 | 35988 ft | 381 kts | 226° |
| 2026-05-09 12:03 | 36.85024 | -79.24530 | 35999 ft | 381 kts | 226° |
| 2026-05-09 12:03 | 36.80760 | -79.28457 | 36009 ft | 381 kts | 226° |
| 2026-05-09 12:04 | 36.76488 | -79.32382 | 36017 ft | 381 kts | 226° |
| 2026-05-09 12:04 | 36.72214 | -79.36299 | 35976 ft | 381 kts | 227° |
| 2026-05-09 12:05 | 36.67941 | -79.40206 | 36004 ft | 381 kts | 227° |
| 2026-05-09 12:05 | 36.63672 | -79.44107 | 36036 ft | 381 kts | 227° |
| 2026-05-09 12:06 | 36.59399 | -79.48007 | 36033 ft | 381 kts | 227° |
| 2026-05-09 12:06 | 36.55130 | -79.51906 | 35994 ft | 381 kts | 227° |
| 2026-05-09 12:07 | 36.50864 | -79.55801 | 35945 ft | 381 kts | 228° |
| 2026-05-09 12:07 | 36.46596 | -79.59698 | 35959 ft | 381 kts | 228° |
| 2026-05-09 12:08 | 36.42340 | -79.63560 | 35971 ft | 381 kts | 227° |
| 2026-05-09 12:08 | 36.38054 | -79.67436 | 35982 ft | 381 kts | 227° |
| 2026-05-09 12:09 | 36.33765 | -79.71323 | 36037 ft | 381 kts | 228° |
| 2026-05-09 12:09 | 36.29478 | -79.75199 | 35967 ft | 382 kts | 227° |
| 2026-05-09 12:10 | 36.20867 | -79.82971 | 35987 ft | 383 kts | 228° |
| 2026-05-09 12:11 | 36.16555 | -79.86862 | 36002 ft | 384 kts | 227° |
| 2026-05-09 12:11 | 36.12232 | -79.90741 | 36008 ft | 384 kts | 227° |
| 2026-05-09 12:12 | 36.07905 | -79.94619 | 36015 ft | 384 kts | 227° |
| 2026-05-09 12:12 | 36.03366 | -79.98221 | 35984 ft | 402 kts | 217° |
| 2026-05-09 12:13 | 35.99019 | -80.00405 | 35995 ft | 406 kts | 216° |
| 2026-05-09 12:13 | 35.93772 | -80.02990 | 36000 ft | 406 kts | 216° |
| 2026-05-09 12:14 | 35.88522 | -80.05568 | 35999 ft | 406 kts | 216° |
| 2026-05-09 12:14 | 35.83275 | -80.08151 | 35959 ft | 406 kts | 216° |
| 2026-05-09 12:15 | 35.78035 | -80.10729 | 35987 ft | 405 kts | 216° |
| 2026-05-09 12:15 | 35.72832 | -80.13290 | 36009 ft | 405 kts | 216° |
| 2026-05-09 12:16 | 35.67596 | -80.15862 | 36014 ft | 405 kts | 216° |
| 2026-05-09 12:16 | 35.62360 | -80.18428 | 36030 ft | 404 kts | 216° |